Time;durP1;ratioP1;P1;durP2;ratioP2;P2;SDS_P1;SDS_P2;PMS_P1;PMS_P2;Temp;Humidity;BMP_temperature;BMP_pressure;BME280_temperature;BME280_humidity;BME280_pressure;Samples;Min_cycle;Max_cycle;Signal;HPM_P1;HPM_P2
2021/06/01 00:02:50;;;;;;;4.95;2.50;;;;;;;10.48;79.98;99991.34;6347730;28;20130;-59
2021/06/01 00:05:50;;;;;;;6.50;2.45;;;;;;;10.42;80.57;99994.34;6347736;28;20077;-59
2021/06/01 00:08:52;;;;;;;4.70;2.25;;;;;;;10.38;81.31;99992.84;6347394;28;20052;-59
2021/06/01 00:11:52;;;;;;;3.90;2.40;;;;;;;10.35;81.07;99993.03;6347409;28;20065;-59
2021/06/01 00:14:53;;;;;;;5.10;2.65;;;;;;;10.31;80.44;99994.13;6347281;28;20406;-59
2021/06/01 00:17:54;;;;;;;7.10;2.40;;;;;;;10.23;81.16;99991.97;6347572;28;20115;-59
2021/06/01 00:20:55;;;;;;;4.22;2.50;;;;;;;10.26;83.08;99988.34;6346155;28;20051;-59
2021/06/01 00:23:56;;;;;;;6.88;2.83;;;;;;;10.20;80.72;99986.09;6347198;28;20055;-59
2021/06/01 00:26:57;;;;;;;7.35;2.65;;;;;;;10.15;81.11;99986.41;6346129;28;20383;-59
2021/06/01 00:29:58;;;;;;;4.40;2.67;;;;;;;10.13;81.72;99992.59;6345950;28;20084;-59
2021/06/01 00:32:58;;;;;;;6.53;2.58;;;;;;;10.14;81.37;99994.31;6346890;28;20043;-59
2021/06/01 00:36:00;;;;;;;5.57;2.72;;;;;;;10.12;80.10;99990.94;6328969;28;20044;-59
2021/06/01 00:39:01;;;;;;;4.65;2.17;;;;;;;10.08;81.38;100001.53;6312063;28;20050;-59
2021/06/01 00:42:02;;;;;;;12.15;2.58;;;;;;;10.09;80.31;99986.75;6346740;28;20039;-58
2021/06/01 00:45:04;;;;;;;4.93;2.53;;;;;;;10.08;80.13;99991.13;6346819;28;20065;-59
2021/06/01 00:48:05;;;;;;;6.28;2.45;;;;;;;10.06;80.65;99992.97;6345671;28;20049;-60
2021/06/01 00:51:06;;;;;;;4.93;2.75;;;;;;;10.03;80.57;99992.34;6346834;28;20047;-59
2021/06/01 00:54:06;;;;;;;6.90;2.25;;;;;;;10.02;81.40;99993.25;6345520;28;20093;-59
2021/06/01 00:57:07;;;;;;;4.03;2.38;;;;;;;9.97;81.33;99990.94;6346553;28;20047;-59
2021/06/01 01:00:23;;;;;;;5.37;2.63;;;;;;;9.94;81.89;99987.66;6346631;28;20046;-59
2021/06/01 01:03:24;;;;;;;8.98;2.40;;;;;;;9.87;81.58;99993.25;6345271;28;20153;-59
2021/06/01 01:06:41;;;;;;;5.60;2.60;;;;;;;9.83;81.11;99993.50;6344382;28;20060;-59
2021/06/01 01:09:45;;;;;;;10.00;2.80;;;;;;;9.78;81.78;99993.78;6346213;28;20059;-59
2021/06/01 01:13:13;;;;;;;7.57;3.20;;;;;;;9.76;82.14;99990.44;6344982;28;20043;-59
2021/06/01 01:16:14;;;;;;;4.63;2.42;;;;;;;9.71;82.39;99987.25;6342516;28;20488;-59
2021/06/01 01:19:22;;;;;;;9.15;2.88;;;;;;;9.66;81.80;99984.91;6345147;28;20051;-60
2021/06/01 01:22:31;;;;;;;5.82;2.67;;;;;;;9.68;82.63;99987.44;6346155;28;20495;-59
2021/06/01 01:25:56;;;;;;;9.63;2.28;;;;;;;9.66;82.55;99992.72;6346072;28;20087;-59
2021/06/01 01:29:13;;;;;;;3.30;2.22;;;;;;;9.62;82.46;99995.63;6346128;28;20677;-59
2021/06/01 01:32:25;;;;;;;5.43;2.72;;;;;;;9.58;82.83;99994.94;6327970;28;20043;-59
2021/06/01 01:35:29;;;;;;;5.40;3.17;;;;;;;9.58;82.24;99992.34;6345993;28;20043;-59
2021/06/01 01:38:31;;;;;;;9.95;3.70;;;;;;;9.52;83.02;99995.28;6346005;28;20039;-59
2021/06/01 01:41:37;;;;;;;8.68;3.28;;;;;;;9.52;82.83;99989.25;6346034;28;20031;-59
2021/06/01 01:44:48;;;;;;;3.72;2.70;;;;;;;9.50;82.77;99989.34;6345798;28;20263;-59
2021/06/01 01:51:16;;;;;;;3.50;2.55;;;;;;;9.44;83.28;99987.09;6345789;28;20126;-60
2021/06/01 01:54:22;;;;;;;4.95;2.47;;;;;;;9.42;83.70;99987.16;6344459;28;20062;-59
2021/06/01 01:57:25;;;;;;;2.55;2.30;;;;;;;9.36;84.19;99987.50;6344660;28;20040;-60
2021/06/01 02:00:26;;;;;;;5.78;2.92;;;;;;;9.33;84.23;99976.44;6345781;28;20047;-59
2021/06/01 02:03:27;;;;;;;4.57;2.50;;;;;;;9.28;84.89;99980.13;6344355;28;20051;-58
2021/06/01 02:06:28;;;;;;;6.68;2.80;;;;;;;9.17;85.64;99981.69;6345532;28;20051;-58
2021/06/01 02:09:29;;;;;;;5.83;2.73;;;;;;;9.23;85.01;99984.78;6344270;28;20047;-58
2021/06/01 02:12:30;;;;;;;5.47;2.72;;;;;;;9.24;85.06;99978.63;6344430;28;20123;-58
2021/06/01 02:15:31;;;;;;;5.70;2.63;;;;;;;9.22;84.75;99982.25;6344197;28;20058;-58
2021/06/01 02:18:31;;;;;;;3.97;3.00;;;;;;;9.19;85.66;99979.84;6349100;28;20118;-58
2021/06/01 02:24:54;;;;;;;4.20;2.80;;;;;;;9.17;85.79;99984.28;6350193;28;20040;-58
2021/06/01 02:28:07;;;;;;;5.35;3.30;;;;;;;9.10;85.68;99985.53;6348879;28;20054;-58
2021/06/01 02:31:20;;;;;;;4.65;3.17;;;;;;;9.08;86.27;99981.28;6350064;28;20122;-59
2021/06/01 02:34:22;;;;;;;5.10;3.38;;;;;;;9.06;85.65;99987.50;6349814;28;20042;-58
2021/06/01 02:37:22;;;;;;;3.40;2.67;;;;;;;9.05;86.17;99988.41;6348624;28;20478;-58
2021/06/01 02:40:24;;;;;;;6.05;3.20;;;;;;;9.05;85.89;99988.41;6349672;28;20036;-59
2021/06/01 02:43:25;;;;;;;6.07;2.85;;;;;;;9.05;86.19;99991.00;6348543;28;20072;-58
2021/06/01 02:46:27;;;;;;;6.07;3.30;;;;;;;9.00;86.23;99988.66;6349728;28;20058;-58
2021/06/01 02:49:27;;;;;;;6.93;3.00;;;;;;;8.99;86.56;99986.16;6348289;28;20146;-58
2021/06/01 02:52:28;;;;;;;7.25;3.35;;;;;;;8.92;86.57;99987.44;6349364;28;20508;-58
2021/06/01 02:55:29;;;;;;;6.45;3.00;;;;;;;8.94;86.67;99986.41;6331171;28;20068;-58
2021/06/01 02:58:32;;;;;;;6.13;3.20;;;;;;;8.92;87.25;99993.47;6331272;28;20077;-58
2021/06/01 03:01:33;;;;;;;;;;;;;;;8.97;86.88;99994.03;6349762;28;20063;-58
2021/06/01 03:04:34;;;;;;;6.80;2.78;;;;;;;8.99;86.27;99997.38;6349210;28;19977;-58
2021/06/01 03:07:41;;;;;;;6.25;2.95;;;;;;;8.99;86.94;99993.94;6348963;28;20447;-58
2021/06/01 03:10:43;;;;;;;8.02;3.00;;;;;;;9.03;86.48;99995.47;6347768;28;20040;-58
2021/06/01 03:13:45;;;;;;;8.47;3.10;;;;;;;9.03;86.19;99996.28;6348891;28;20036;-58
2021/06/01 03:16:46;;;;;;;6.70;3.17;;;;;;;9.05;86.68;99993.63;6347781;28;20063;-59
2021/06/01 03:19:47;;;;;;;6.63;3.08;;;;;;;9.06;86.53;99998.75;6348903;28;20032;-58
2021/06/01 03:22:48;;;;;;;6.85;3.22;;;;;;;9.10;85.75;99999.41;6348734;28;20103;-58
2021/06/01 03:25:49;;;;;;;8.10;2.90;;;;;;;9.15;85.51;100007.78;6348732;28;20482;-58
2021/06/01 03:28:50;;;;;;;8.85;3.47;;;;;;;9.15;84.45;99993.94;6347886;28;20089;-58
2021/06/01 03:31:51;;;;;;;4.00;2.65;;;;;;;9.17;84.70;99995.53;6347301;28;20039;-58
2021/06/01 03:34:52;;;;;;;11.88;2.95;;;;;;;9.19;84.78;99993.69;6347381;28;20036;-59
2021/06/01 03:37:54;;;;;;;3.92;2.60;;;;;;;9.19;84.71;99998.88;6348406;28;20035;-58
2021/06/01 03:40:54;;;;;;;8.67;3.50;;;;;;;9.22;84.38;99997.88;6348354;28;20089;-58
2021/06/01 03:43:55;;;;;;;5.13;3.00;;;;;;;9.25;84.76;99995.09;6346983;28;20280;-58
2021/06/01 03:46:56;;;;;;;5.30;2.97;;;;;;;9.31;84.88;99999.09;6330183;28;20073;-58
2021/06/01 03:49:57;;;;;;;4.57;3.25;;;;;;;9.35;84.50;99995.41;6346972;28;20118;-57
2021/06/01 03:52:58;;;;;;;11.07;3.35;;;;;;;9.35;84.89;99996.25;6348087;28;20116;-58
2021/06/01 03:55:58;;;;;;;4.80;3.10;;;;;;;9.41;84.75;99989.84;6329768;28;20039;-59
2021/06/01 03:58:59;;;;;;;8.52;2.70;;;;;;;9.45;83.77;99991.34;6347935;28;20081;-58
2021/06/01 04:02:00;;;;;;;4.65;3.03;;;;;;;9.51;84.92;99993.59;6346591;28;20099;-58
2021/06/01 04:05:01;;;;;;;6.65;3.35;;;;;;;9.57;83.82;99993.25;6329824;28;20051;-58
2021/06/01 04:08:05;;;;;;;5.00;3.10;;;;;;;9.62;83.79;99993.84;6347440;28;20051;-59
2021/06/01 04:11:06;;;;;;;9.90;3.30;;;;;;;9.63;84.32;99989.47;6346653;28;20078;-59
2021/06/01 04:14:07;;;;;;;6.40;3.28;;;;;;;9.66;83.21;99992.72;6347426;28;20499;-58
2021/06/01 04:17:08;;;;;;;4.45;2.92;;;;;;;9.71;83.82;99995.06;6347681;28;20048;-57
2021/06/01 04:20:09;;;;;;;9.02;2.97;;;;;;;9.72;82.54;100004.56;6329308;28;20051;-58
2021/06/01 04:23:10;;;;;;;4.70;3.25;;;;;;;9.76;83.26;100000.00;6346187;28;20048;-58
2021/06/01 04:26:11;;;;;;;6.65;3.08;;;;;;;9.83;82.74;99999.56;6346183;28;20053;-58
2021/06/01 04:29:11;;;;;;;5.20;3.33;;;;;;;9.89;82.17;100000.97;6345852;28;20042;-59
2021/06/01 04:32:12;;;;;;;5.57;3.20;;;;;;;9.96;81.82;100007.47;6346929;28;20383;-58
2021/06/01 04:35:13;;;;;;;6.75;2.60;;;;;;;10.03;81.83;100011.41;6346892;28;20092;-58
2021/06/01 04:38:14;;;;;;;9.27;3.20;;;;;;;10.12;82.15;100009.19;6346915;28;20467;-59
2021/06/01 04:41:15;;;;;;;6.40;2.83;;;;;;;10.20;81.20;100009.56;6346842;28;20035;-59
2021/06/01 04:44:16;;;;;;;3.78;3.00;;;;;;;10.27;82.10;100003.91;6346938;28;20479;-59
2021/06/01 04:47:16;;;;;;;6.55;2.78;;;;;;;10.35;80.93;100008.66;6346662;28;20538;-60
2021/06/01 04:50:18;;;;;;;4.85;2.70;;;;;;;10.41;80.27;100004.84;6346677;28;20485;-59
2021/06/01 04:53:19;;;;;;;6.20;3.13;;;;;;;10.52;80.53;100004.19;6345732;28;20052;-59
2021/06/01 04:56:21;;;;;;;7.88;3.10;;;;;;;10.58;80.18;100009.84;6346522;28;20066;-59
2021/06/01 04:59:21;;;;;;;4.97;2.83;;;;;;;10.68;79.47;100005.75;6345419;28;20543;-59
2021/06/01 05:02:22;;;;;;;11.18;3.28;;;;;;;10.73;80.77;100007.22;6346598;28;20040;-59
2021/06/01 05:05:23;;;;;;;6.53;3.00;;;;;;;10.78;79.35;100005.19;6345358;28;20147;-58
2021/06/01 05:08:25;;;;;;;7.47;2.85;;;;;;;10.84;78.77;100008.25;6345051;28;20055;-60
2021/06/01 05:11:26;;;;;;;6.18;3.00;;;;;;;10.93;78.39;100009.44;6346503;28;20067;-59
2021/06/01 05:14:27;;;;;;;9.50;3.25;;;;;;;11.02;77.81;100005.44;6344945;28;20413;-59
2021/06/01 05:17:28;;;;;;;9.60;2.72;;;;;;;11.08;78.01;100011.09;6346371;28;20032;-59
2021/06/01 05:20:29;;;;;;;6.25;3.20;;;;;;;11.19;76.74;100009.56;6328488;28;20104;-59
2021/06/01 05:23:30;;;;;;;5.00;2.67;;;;;;;11.28;76.27;100008.97;6346207;28;20043;-59
2021/06/01 05:26:31;;;;;;;4.95;2.60;;;;;;;11.40;76.02;100010.78;6344750;28;20460;-59
2021/06/01 05:29:35;;;;;;;7.93;2.70;;;;;;;11.49;77.09;100017.19;6346062;28;20077;-59
2021/06/01 05:35:51;;;;;;;4.85;3.10;;;;;;;11.64;75.90;100004.91;6346009;28;20406;-60
2021/06/01 05:38:53;;;;;;;3.55;2.50;;;;;;;11.76;73.56;100005.88;6344866;28;20089;-59
2021/06/01 05:41:54;;;;;;;4.25;2.35;;;;;;;11.87;74.09;100011.19;6344669;28;20405;-60
2021/06/01 05:44:55;;;;;;;3.40;2.45;;;;;;;11.95;74.03;100011.56;6344828;28;20043;-59
2021/06/01 05:47:56;;;;;;;6.35;2.63;;;;;;;12.06;72.50;100010.81;6345792;28;20051;-59
2021/06/01 05:50:58;;;;;;;9.90;2.47;;;;;;;12.18;72.33;100011.78;6346429;28;20040;-59
2021/06/01 05:53:59;;;;;;;5.95;2.83;;;;;;;12.28;74.06;100016.25;6348902;28;20185;-59
2021/06/01 05:57:00;;;;;;;4.43;2.50;;;;;;;12.40;71.94;100013.75;6349621;28;20043;-60
2021/06/01 06:00:04;;;;;;;10.13;2.67;;;;;;;12.47;70.50;100026.28;6349621;28;20043;-59
2021/06/01 06:03:05;;;;;;;5.68;2.63;;;;;;;12.56;69.89;100023.97;6332829;28;20044;-59
2021/06/01 06:06:11;;;;;;;5.68;2.45;;;;;;;12.61;67.05;100020.09;6350555;28;20043;-60
2021/06/01 06:09:12;;;;;;;11.05;2.55;;;;;;;12.64;68.10;100019.03;6349136;28;20055;-60
2021/06/01 06:12:13;;;;;;;3.47;2.47;;;;;;;12.74;67.20;100027.91;6349320;28;20493;-60
2021/06/01 06:15:17;;;;;;;5.10;2.35;;;;;;;12.83;66.52;100026.47;6350544;28;20115;-60
2021/06/01 06:18:23;;;;;;;6.55;2.65;;;;;;;12.87;65.51;100020.06;6350543;28;20051;-59
2021/06/01 06:21:25;;;;;;;4.80;2.22;;;;;;;12.98;67.14;100021.91;6350173;28;20035;-59
2021/06/01 06:24:25;;;;;;;10.30;2.60;;;;;;;13.10;66.57;100026.28;6350336;28;20047;-60
2021/06/01 06:27:27;;;;;;;3.85;2.63;;;;;;;13.19;66.02;100027.38;6348856;28;20043;-59
2021/06/01 06:30:28;;;;;;;3.30;2.30;;;;;;;13.30;64.93;100025.69;6350301;28;20047;-59
2021/06/01 06:33:29;;;;;;;5.38;2.38;;;;;;;13.41;64.85;100024.06;6348682;28;20078;-59
2021/06/01 06:36:30;;;;;;;6.28;2.53;;;;;;;13.53;66.51;100027.56;6331722;28;20051;-59
2021/06/01 06:39:35;;;;;;;6.13;2.60;;;;;;;13.66;63.72;100023.09;6348711;28;20039;-60
2021/06/01 06:42:36;;;;;;;5.13;2.30;;;;;;;13.79;63.84;100023.84;6348645;28;20048;-59
2021/06/01 06:45:38;;;;;;;14.65;2.92;;;;;;;13.88;62.18;100019.72;6349755;28;20047;-59
2021/06/01 06:48:39;;;;;;;6.88;2.58;;;;;;;13.98;62.15;100018.06;6348313;28;20054;-60
2021/06/01 06:51:40;;;;;;;5.00;2.30;;;;;;;14.06;60.01;100013.06;6349580;28;20036;-59
2021/06/01 06:54:41;;;;;;;7.90;2.65;;;;;;;14.11;60.79;100016.16;6348179;28;20039;-59
2021/06/01 06:57:43;;;;;;;6.07;2.60;;;;;;;14.21;59.56;100012.84;6348221;28;20038;-59
2021/06/01 07:00:44;;;;;;;9.48;2.40;;;;;;;14.31;59.05;100009.41;6348176;28;20276;-59
2021/06/01 07:03:45;;;;;;;9.82;2.50;;;;;;;14.42;58.26;100015.59;6346781;28;20085;-59
2021/06/01 07:06:48;;;;;;;11.52;2.30;;;;;;;14.50;57.44;100019.28;6347956;28;20048;-59
2021/06/01 07:09:49;;;;;;;8.52;2.38;;;;;;;14.56;56.16;100023.28;6347674;28;20048;-59
2021/06/01 07:12:50;;;;;;;8.73;2.50;;;;;;;14.62;56.16;100020.16;6347870;28;20035;-59
2021/06/01 07:15:53;;;;;;;3.03;2.00;;;;;;;14.69;57.82;100023.97;6347722;28;20059;-59
2021/06/01 07:18:54;;;;;;;8.00;2.10;;;;;;;14.81;55.59;100024.78;6348831;28;20404;-59
2021/06/01 07:21:55;;;;;;;8.27;2.13;;;;;;;14.87;54.25;100015.59;6347476;28;20048;-59
2021/06/01 07:24:55;;;;;;;4.60;2.22;;;;;;;14.94;55.82;100019.41;6348765;28;20044;-59
2021/06/01 07:27:56;;;;;;;4.25;1.70;;;;;;;15.06;52.70;100022.84;6348561;28;20059;-59
2021/06/01 07:31:02;;;;;;;8.88;2.40;;;;;;;15.18;56.26;100018.41;6348566;28;20539;-58
2021/06/01 07:34:03;;;;;;;5.72;2.00;;;;;;;15.28;56.17;100027.22;6346872;28;20050;-59
2021/06/01 07:37:04;;;;;;;7.78;2.30;;;;;;;15.31;54.45;100021.69;6347198;28;20036;-59
2021/06/01 07:40:06;;;;;;;3.17;1.90;;;;;;;15.40;53.70;100025.34;6347253;28;20047;-60
2021/06/01 07:43:07;;;;;;;4.88;2.20;;;;;;;15.47;52.64;100018.66;6348449;28;20559;-59
2021/06/01 07:46:08;;;;;;;5.25;1.90;;;;;;;15.52;53.09;100027.84;6348268;28;20040;-59
2021/06/01 07:49:10;;;;;;;8.30;2.00;;;;;;;15.59;53.82;100025.53;6329998;28;20039;-59
2021/06/01 07:52:11;;;;;;;5.65;1.80;;;;;;;15.66;52.23;100020.59;6348040;28;20035;-60
2021/06/01 07:55:12;;;;;;;4.43;2.00;;;;;;;15.79;52.81;100015.16;6348137;28;20032;-59
2021/06/01 07:58:13;;;;;;;6.87;2.30;;;;;;;15.89;52.09;100010.81;6347231;28;20509;-58
2021/06/01 08:01:14;;;;;;;7.90;2.72;;;;;;;16.00;52.36;100021.28;6347927;28;20521;-59
2021/06/01 08:04:15;;;;;;;9.45;5.07;;;;;;;16.05;50.35;100018.25;6347840;28;20040;-59
2021/06/01 08:07:18;;;;;;;10.70;3.60;;;;;;;16.14;51.71;100025.34;6329428;28;20123;-59
2021/06/01 08:10:22;;;;;;;9.10;4.20;;;;;;;16.24;51.42;100014.88;6347535;28;20413;-59
2021/06/01 08:13:24;;;;;;;11.57;3.20;;;;;;;16.37;50.21;100019.94;6347833;28;20035;-59
2021/06/01 08:16:26;;;;;;;10.52;5.70;;;;;;;16.37;49.75;100015.53;6345972;28;20065;-59
2021/06/01 08:19:31;;;;;;;7.25;2.60;;;;;;;16.43;52.56;100022.91;6346179;28;20485;-59
2021/06/01 08:22:32;;;;;;;8.10;3.10;;;;;;;16.48;49.62;100015.41;6346079;28;20486;-59
2021/06/01 08:25:33;;;;;;;5.82;2.15;;;;;;;16.50;47.60;100013.47;6346237;28;20288;-59
2021/06/01 08:28:34;;;;;;;4.68;1.85;;;;;;;16.53;48.65;100017.63;6346073;28;20444;-59
2021/06/01 08:31:35;;;;;;;6.35;2.10;;;;;;;16.61;51.05;100019.63;6345854;28;20052;-59
2021/06/01 08:34:36;;;;;;;4.70;1.70;;;;;;;16.68;49.56;100015.50;6347113;28;20072;-58
2021/06/01 08:37:39;;;;;;;3.30;1.70;;;;;;;16.75;49.26;100018.44;6347370;28;20311;-59
2021/06/01 08:40:40;;;;;;;2.92;1.73;;;;;;;16.75;48.56;100016.63;6346009;28;20047;-58
2021/06/01 08:43:41;;;;;;;8.38;2.78;;;;;;;16.79;48.95;100023.28;6345566;28;20043;-58
2021/06/01 08:46:42;;;;;;;6.10;1.85;;;;;;;16.82;46.48;100020.44;6346857;28;20040;-58
2021/06/01 08:49:45;;;;;;;5.97;2.10;;;;;;;17.00;49.46;100027.66;6346731;28;20047;-58
2021/06/01 08:52:46;;;;;;;5.47;2.05;;;;;;;17.03;47.44;100028.25;6346658;28;20114;-58
2021/06/01 08:55:48;;;;;;;8.80;1.73;;;;;;;17.13;47.42;100025.59;6345445;28;20057;-58
2021/06/01 08:58:49;;;;;;;4.45;1.83;;;;;;;17.17;48.25;100032.25;6347378;28;20035;-58
2021/06/01 09:01:50;;;;;;;8.45;2.22;;;;;;;17.24;47.10;100033.41;6347536;28;20043;-57
2021/06/01 09:04:59;;;;;;;5.60;3.25;;;;;;;17.29;49.93;100030.34;6347563;28;20039;-59
2021/06/01 09:08:04;;;;;;;5.38;1.95;;;;;;;17.36;49.24;100025.34;6347100;28;20056;-58
2021/06/01 09:11:28;;;;;;;8.27;2.53;;;;;;;17.45;45.46;100020.09;6346271;28;20040;-59
2021/06/01 09:21:05;;;;;;;4.90;2.08;;;;;;;17.58;48.43;100024.25;6346012;28;20108;-58
2021/06/01 09:24:06;;;;;;;2.53;1.50;;;;;;;17.63;45.86;100019.41;6347138;28;20105;-58
2021/06/01 09:27:17;;;;;;;3.33;1.50;;;;;;;17.41;45.12;100025.78;6346428;28;20044;-58
2021/06/01 09:30:58;;;;;;;7.07;1.70;;;;;;;17.47;45.93;100022.59;6346231;28;20112;-58
2021/06/01 09:33:58;;;;;;;3.13;1.38;;;;;;;17.69;45.77;100017.03;6324945;28;20558;-57
2021/06/01 09:37:34;;;;;;;3.83;1.65;;;;;;;17.89;46.37;100012.59;6346069;28;20410;-58
2021/06/01 09:40:35;;;;;;;4.97;1.42;;;;;;;17.96;45.61;100014.66;6323141;28;20056;-58
2021/06/01 09:43:58;;;;;;;3.17;1.40;;;;;;;17.98;45.15;100010.91;6344925;28;20055;-59
2021/06/01 09:46:59;;;;;;;2.80;1.60;;;;;;;18.05;45.80;100021.72;6324839;28;20830;-58
2021/06/01 09:53:33;;;;;;;4.88;1.67;;;;;;;18.36;46.36;100013.56;6345832;28;20099;-58
2021/06/01 09:56:34;;;;;;;3.95;1.77;;;;;;;18.57;45.47;100008.88;6345766;28;20481;-58
2021/06/01 09:59:35;;;;;;;6.70;1.83;;;;;;;18.70;42.47;100008.56;6344520;28;20044;-58
2021/06/01 10:02:36;;;;;;;3.97;1.65;;;;;;;18.60;41.57;100003.31;6345715;28;20337;-58
2021/06/01 10:05:39;;;;;;;6.90;1.50;;;;;;;18.68;43.92;100006.06;6344654;28;20039;-58
2021/06/01 10:08:52;;;;;;;4.90;1.65;;;;;;;18.87;42.17;100007.78;6327383;28;20060;-58
2021/06/01 10:12:00;;;;;;;1.48;1.20;;;;;;;18.93;40.55;100014.31;6345525;28;20031;-58
2021/06/01 10:15:02;;;;;;;5.30;1.30;;;;;;;18.93;38.81;100006.38;6345594;28;20405;-58
2021/06/01 10:18:09;;;;;;;2.55;1.50;;;;;;;18.95;42.48;100014.16;6345472;28;20043;-58
2021/06/01 10:21:18;;;;;;;2.58;1.42;;;;;;;18.91;41.81;100008.31;6345542;28;20127;-58
2021/06/01 10:24:19;;;;;;;4.82;1.52;;;;;;;19.05;42.11;99996.41;6344367;28;20047;-58
2021/06/01 10:27:20;;;;;;;4.50;1.93;;;;;;;19.24;42.98;100004.19;6327371;28;20104;-58
2021/06/01 10:30:21;;;;;;;6.17;2.03;;;;;;;19.28;41.36;100007.38;6344075;28;20078;-58
2021/06/01 10:33:26;;;;;;;3.28;1.77;;;;;;;19.26;39.88;100001.41;6345500;28;20047;-58
2021/06/01 10:53:10;;;;;;;3.07;1.50;;;;;;;20.18;39.79;99994.00;6348302;28;20050;-58
2021/06/01 10:56:11;;;;;;;6.45;2.10;;;;;;;20.56;40.12;99990.06;6349980;28;20046;-58
2021/06/01 10:59:13;;;;;;;3.13;2.00;;;;;;;20.58;37.60;99998.72;6331323;28;20130;-59
2021/06/01 11:02:16;;;;;;;3.15;1.75;;;;;;;20.57;37.61;99999.69;6349309;28;20047;-59
2021/06/01 11:05:17;;;;;;;4.07;2.00;;;;;;;20.69;39.75;99993.13;6349295;28;20043;-58
2021/06/01 11:08:37;;;;;;;;;;;;;;;20.91;40.00;99996.16;6349613;28;20052;-59
2021/06/01 11:11:39;;;;;;;4.80;1.95;;;;;;;20.64;37.05;99995.41;6349047;28;20293;-59
2021/06/01 11:14:39;;;;;;;;;;;;;;;20.26;36.99;99984.31;6348342;28;20546;-59
2021/06/01 11:17:41;;;;;;;6.90;1.60;;;;;;;20.08;37.32;99997.59;6349080;28;19919;-58
2021/06/01 11:21:05;;;;;;;5.95;1.83;;;;;;;19.68;38.92;99991.03;6347869;28;20043;-58
2021/06/01 11:33:53;;;;;;;7.88;2.00;;;;;;;19.39;39.36;99993.91;6348556;28;20040;-58
2021/06/01 11:36:56;;;;;;;5.13;1.80;;;;;;;19.35;40.00;100000.50;6347378;28;20044;-58
2021/06/01 11:43:20;;;;;;;12.48;2.28;;;;;;;19.45;40.55;100003.88;6340629;28;20060;-58
2021/06/01 11:52:55;;;;;;;5.28;2.00;;;;;;;20.36;38.71;99986.81;6347947;28;20054;-58
2021/06/01 11:56:02;;;;;;;2.95;1.90;;;;;;;20.80;39.38;99993.81;6348130;28;20493;-59
2021/06/01 12:19:39;;;;;;;11.85;2.00;;;;;;;29.70;22.30;99984.38;6283023;28;20127;-60
2021/06/01 12:22:40;;;;;;;11.98;1.80;;;;;;;29.64;21.80;99967.25;6294083;28;20104;-59
2021/06/01 12:26:11;;;;;;;6.72;1.75;;;;;;;30.56;22.66;99968.34;6345151;28;20417;-60
2021/06/01 12:32:32;;;;;;;4.93;1.55;;;;;;;29.31;21.88;99971.03;6346973;28;20044;-60
2021/06/01 12:42:18;;;;;;;5.45;1.70;;;;;;;25.78;26.41;99968.31;6346938;28;20040;-60
2021/06/01 12:45:27;;;;;;;2.50;1.65;;;;;;;25.46;27.14;99962.50;6346839;28;20063;-61
2021/06/01 13:22:45;;;;;;;6.70;1.60;;;;;;;21.77;33.95;99955.09;6346185;28;20120;-59
2021/06/01 13:32:31;;;;;;;7.82;1.90;;;;;;;21.49;34.72;99975.88;6346117;28;20047;-59
2021/06/01 13:49:30;;;;;;;6.47;1.67;;;;;;;21.07;34.67;99985.59;6322429;28;20509;-59
2021/06/01 13:52:51;;;;;;;3.55;1.70;;;;;;;20.89;35.23;99980.41;6345724;28;20038;-59
2021/06/01 13:56:04;;;;;;;3.35;1.42;;;;;;;20.77;35.96;99979.03;6345841;28;20047;-59
2021/06/01 13:59:19;;;;;;;7.60;1.88;;;;;;;20.81;37.00;99987.53;6345830;28;20509;-59
2021/06/01 14:28:43;;;;;;;5.43;1.70;;;;;;;19.87;36.26;99990.03;6350321;28;20047;-59
2021/06/01 15:49:59;;;;;;;5.88;2.08;;;;;;;18.83;39.06;100010.88;6333320;28;20058;-58
2021/06/01 16:23:26;;;;;;;5.18;2.58;;;;;;;18.06;41.59;100008.38;6346641;28;20048;-59
2021/06/01 16:29:54;;;;;;;11.80;2.70;;;;;;;18.05;40.86;100011.16;6347797;28;20044;-59
2021/06/01 17:06:10;;;;;;;6.05;2.65;;;;;;;17.23;45.07;100039.63;6347313;28;20122;-59
2021/06/01 17:12:31;;;;;;;3.50;2.28;;;;;;;17.10;44.59;100042.53;6347232;28;20181;-60
2021/06/01 17:15:34;;;;;;;10.20;2.60;;;;;;;17.06;44.63;100043.78;6346030;28;20044;-60
2021/06/01 17:31:54;;;;;;;;;;;;;;;17.16;44.60;100064.06;6347621;28;20436;-59
2021/06/01 17:34:59;;;;;;;5.00;2.22;;;;;;;17.21;44.57;100053.94;6346974;28;19963;-60
2021/06/01 17:38:04;;;;;;;7.15;1.90;;;;;;;17.26;42.88;100062.28;6347125;28;20072;-60
2021/06/01 17:41:12;;;;;;;11.57;1.85;;;;;;;17.30;44.10;100059.22;6346942;28;20038;-58
2021/06/01 17:44:14;;;;;;;3.85;1.70;;;;;;;17.35;42.85;100065.88;6345733;28;20378;-58
2021/06/01 17:47:20;;;;;;;2.08;1.52;;;;;;;17.38;42.72;100077.00;6345673;28;20047;-58
2021/06/01 17:50:24;;;;;;;3.13;1.42;;;;;;;17.36;42.83;100070.19;6351753;28;20056;-58
2021/06/01 17:53:25;;;;;;;4.38;1.60;;;;;;;17.37;42.40;100075.31;6350434;28;20492;-59
2021/06/01 17:56:29;;;;;;;5.20;1.50;;;;;;;17.35;42.68;100077.25;6351720;28;20047;-58
2021/06/01 17:59:30;;;;;;;2.35;1.65;;;;;;;17.36;42.05;100075.44;6350601;28;20467;-58
2021/06/01 18:02:33;;;;;;;2.22;1.52;;;;;;;17.33;42.05;100076.56;6351670;28;20496;-57
2021/06/01 18:05:38;;;;;;;3.58;1.33;;;;;;;17.30;42.24;100087.41;6350311;28;20050;-57
2021/06/01 18:08:51;;;;;;;3.63;1.60;;;;;;;17.26;43.17;100089.47;6350391;28;20043;-58
2021/06/01 18:59:52;;;;;;;5.40;2.25;;;;;;;15.96;47.90;100142.69;6348059;28;20066;-59
2021/06/01 19:23:25;;;;;;;3.75;1.77;;;;;;;15.50;47.25;100168.25;6349073;28;20038;-59
2021/06/01 19:26:06;;;;;;;9.65;1.77;;;;;;;15.47;47.44;100155.38;6348580;28;20574;-58
2021/06/01 19:52:23;;;;;;;3.83;1.83;;;;;;;15.03;51.06;100183.34;6348135;28;20043;-59
2021/06/01 19:55:27;;;;;;;6.00;1.85;;;;;;;14.99;50.84;100189.81;6348458;28;20040;-59
2021/06/01 19:58:29;;;;;;;3.03;1.98;;;;;;;14.97;50.49;100189.94;6346809;28;20071;-59
2021/06/01 20:01:31;;;;;;;5.00;1.95;;;;;;;14.91;50.80;100191.25;6346966;28;20035;-59
2021/06/01 20:04:32;;;;;;;6.90;2.00;;;;;;;14.87;51.61;100199.47;6346751;28;20079;-59
2021/06/01 20:07:34;;;;;;;7.18;1.90;;;;;;;14.87;51.79;100194.22;6347683;28;20300;-59
2021/06/01 20:10:35;;;;;;;4.40;1.80;;;;;;;14.80;51.32;100190.38;6347339;28;20076;-59
2021/06/01 20:13:37;;;;;;;6.97;2.20;;;;;;;14.71;52.34;100186.69;6329649;28;20039;-59
2021/06/01 20:16:42;;;;;;;3.30;2.10;;;;;;;14.70;52.45;100195.50;6347656;28;20051;-59
2021/06/01 20:19:45;;;;;;;9.52;2.42;;;;;;;14.64;52.58;100191.56;6329797;28;20070;-57
2021/06/01 20:22:49;;;;;;;5.45;1.85;;;;;;;14.58;51.84;100192.03;6329676;28;20082;-57
2021/06/01 20:25:56;;;;;;;2.88;1.73;;;;;;;14.53;51.82;100196.75;6347200;28;20071;-59
2021/06/01 20:29:20;;;;;;;3.00;2.20;;;;;;;14.46;52.72;100203.41;6347302;28;20035;-59
2021/06/01 20:35:48;;;;;;;4.40;2.13;;;;;;;14.29;52.64;100202.88;6347169;28;20071;-56
2021/06/01 20:38:50;;;;;;;7.72;2.40;;;;;;;14.31;52.76;100194.91;6347221;28;20036;-57
2021/06/01 20:41:54;;;;;;;6.28;3.88;;;;;;;14.20;52.89;100198.31;6347050;28;20046;-57
2021/06/01 20:44:55;;;;;;;6.57;3.40;;;;;;;14.21;52.96;100210.50;6346977;28;20086;-56
2021/06/01 20:47:58;;;;;;;4.38;2.40;;;;;;;14.18;52.71;100209.88;6328843;28;20036;-57
2021/06/01 20:50:59;;;;;;;6.72;2.33;;;;;;;14.18;52.49;100207.25;6346732;28;20040;-57
2021/06/01 20:54:01;;;;;;;4.22;2.17;;;;;;;14.14;53.53;100209.25;6345614;28;20043;-56
2021/06/01 20:57:04;;;;;;;5.65;2.40;;;;;;;14.09;53.12;100206.97;6345367;28;20036;-57
2021/06/01 21:00:09;;;;;;;3.42;2.40;;;;;;;14.05;53.11;100208.16;6346771;28;20039;-57
2021/06/01 21:03:11;;;;;;;2.70;1.92;;;;;;;14.00;52.85;100209.44;6346648;28;20047;-57
2021/06/01 21:06:12;;;;;;;4.78;2.20;;;;;;;13.93;53.55;100202.97;6345467;28;20516;-56
2021/06/01 21:09:14;;;;;;;4.88;2.08;;;;;;;13.86;53.77;100213.06;6345128;28;20059;-57
2021/06/01 21:12:15;;;;;;;4.65;2.00;;;;;;;13.80;54.71;100208.28;6346455;28;20157;-57
2021/06/01 21:15:16;;;;;;;6.20;2.10;;;;;;;13.76;54.71;100210.25;6346340;28;20039;-57
2021/06/01 21:18:17;;;;;;;5.07;2.67;;;;;;;13.72;54.58;100218.47;6346347;28;20040;-57
2021/06/01 21:21:18;;;;;;;11.32;2.20;;;;;;;13.73;54.32;100218.34;6346397;28;20046;-57
2021/06/01 21:24:19;;;;;;;5.25;2.30;;;;;;;13.72;54.06;100218.47;6344263;28;20071;-57
2021/06/01 21:27:22;;;;;;;5.97;2.20;;;;;;;13.69;54.23;100216.88;6346295;28;20036;-57